Time;durP1;ratioP1;P1;durP2;ratioP2;P2;SDS_P1;SDS_P2;PMS_P1;PMS_P2;Temp;Humidity;BMP_temperature;BMP_pressure;BME280_temperature;BME280_humidity;BME280_pressure;Samples;Min_cycle;Max_cycle;Signal;HPM_P1;HPM_P2
2021/06/13 00:01:50;;;;;;;11.25;4.20;;;;;;;;;;5043919;28;20041;-41
2021/06/13 00:04:17;;;;;;;13.35;3.95;;;;;;;;;;5050503;28;20036;-40
2021/06/13 00:06:44;;;;;;;16.38;3.97;;;;;;;;;;5052709;28;20041;-42
2021/06/13 00:09:11;;;;;;;16.45;4.68;;;;;;;;;;5051156;28;20021;-41
2021/06/13 00:11:38;;;;;;;12.60;4.55;;;;;;;;;;5051885;28;20047;-39
2021/06/13 00:14:05;;;;;;;11.25;3.72;;;;;;;;;;5049776;28;20492;-42
2021/06/13 00:16:32;;;;;;;9.85;4.38;;;;;;;;;;5049525;28;20036;-40
2021/06/13 00:18:59;;;;;;;12.23;4.78;;;;;;;;;;5054180;28;20085;-41
2021/06/13 00:21:26;;;;;;;12.10;4.28;;;;;;;;;;5051993;28;20468;-41
2021/06/13 00:23:53;;;;;;;12.20;4.43;;;;;;;;;;5051446;28;20040;-41
2021/06/13 00:26:20;;;;;;;19.38;5.22;;;;;;;;;;5054036;28;20399;-41
2021/06/13 00:28:48;;;;;;;18.70;5.22;;;;;;;;;;5049933;28;20028;-40
2021/06/13 00:31:15;;;;;;;17.02;5.38;;;;;;;;;;5049978;28;20021;-41
2021/06/13 00:33:42;;;;;;;14.07;4.47;;;;;;;;;;5052869;28;20047;-41
2021/06/13 00:36:09;;;;;;;17.75;4.68;;;;;;;;;;5051385;28;20407;-41
2021/06/13 00:38:36;;;;;;;15.88;4.43;;;;;;;;;;5052428;28;20025;-40
2021/06/13 00:41:04;;;;;;;9.43;4.95;;;;;;;;;;5048996;28;20469;-41
2021/06/13 00:43:31;;;;;;;14.13;4.60;;;;;;;;;;5050138;28;20041;-41
2021/06/13 00:45:58;;;;;;;14.07;4.65;;;;;;;;;;5053937;28;20037;-41
2021/06/13 00:48:25;;;;;;;15.05;4.25;;;;;;;;;;5052062;28;20095;-41
2021/06/13 00:50:53;;;;;;;14.75;4.53;;;;;;;;;;5050919;28;20028;-41
2021/06/13 00:53:20;;;;;;;16.50;4.80;;;;;;;;;;5050316;28;20025;-41
2021/06/13 00:55:48;;;;;;;12.90;4.65;;;;;;;;;;5050507;28;20043;-45
2021/06/13 00:58:15;;;;;;;14.65;4.68;;;;;;;;;;5049941;28;20215;-41
2021/06/13 01:00:43;;;;;;;13.77;4.15;;;;;;;;;;5050189;28;20025;-40
2021/06/13 01:03:10;;;;;;;13.20;4.50;;;;;;;;;;5050936;28;20028;-41
2021/06/13 01:05:38;;;;;;;21.17;4.78;;;;;;;;;;5043429;28;20060;-42
2021/06/13 01:08:35;;;;;;;12.90;4.93;;;;;;;;;;5052764;28;20420;-40
2021/06/13 01:11:05;;;;;;;11.63;4.35;;;;;;;;;;5040781;28;20032;-41
2021/06/13 01:13:51;;;;;;;12.77;5.00;;;;;;;;;;5055846;28;20037;-40
2021/06/13 01:16:34;;;;;;;14.45;4.65;;;;;;;;;;5054269;28;20465;-41
2021/06/13 01:19:16;;;;;;;21.90;5.18;;;;;;;;;;5052731;28;20039;-41
2021/06/13 01:21:50;;;;;;;13.95;4.47;;;;;;;;;;5057575;28;20357;-42
2021/06/13 01:24:32;;;;;;;11.82;4.68;;;;;;;;;;5053553;28;20073;-42
2021/06/13 01:27:08;;;;;;;15.83;4.83;;;;;;;;;;5054619;28;20035;-40
2021/06/13 01:29:55;;;;;;;16.10;4.53;;;;;;;;;;5064737;28;20115;-42
2021/06/13 01:32:27;;;;;;;18.92;4.43;;;;;;;;;;5068938;28;20086;-43
2021/06/13 01:35:09;;;;;;;12.60;3.95;;;;;;;;;;5039859;28;20028;-42
2021/06/13 01:37:38;;;;;;;16.20;5.00;;;;;;;;;;5067200;28;20066;-42
2021/06/13 01:40:07;;;;;;;16.98;5.85;;;;;;;;;;5067064;28;20391;-43
2021/06/13 01:42:34;;;;;;;14.77;5.22;;;;;;;;;;5070085;28;20024;-42
2021/06/13 01:45:04;;;;;;;20.55;6.45;;;;;;;;;;5064966;28;20029;-43
2021/06/13 01:47:31;;;;;;;17.27;7.50;;;;;;;;;;5056137;28;20048;-43
2021/06/13 01:49:58;;;;;;;25.42;9.25;;;;;;;;;;5043434;28;20025;-42
2021/06/13 01:52:27;;;;;;;23.00;9.80;;;;;;;;;;5057768;28;20021;-43
2021/06/13 01:54:56;;;;;;;28.67;11.25;;;;;;;;;;5061742;28;20053;-43
2021/06/13 01:57:23;;;;;;;27.15;11.27;;;;;;;;;;5070386;28;20024;-43
2021/06/13 01:59:50;;;;;;;26.05;11.85;;;;;;;;;;5066168;28;20387;-43
2021/06/13 02:02:18;;;;;;;27.35;11.93;;;;;;;;;;5054765;28;20040;-42
2021/06/13 02:04:46;;;;;;;24.02;11.93;;;;;;;;;;5067630;28;20439;-42
2021/06/13 02:07:14;;;;;;;28.70;12.65;;;;;;;;;;5068091;28;20020;-42
2021/06/13 02:09:42;;;;;;;27.40;11.57;;;;;;;;;;5069293;28;20104;-43
2021/06/13 02:12:09;;;;;;;24.70;11.75;;;;;;;;;;5065849;28;20106;-44
2021/06/13 02:14:37;;;;;;;23.83;11.73;;;;;;;;;;5069994;28;20016;-43
2021/06/13 02:17:06;;;;;;;29.00;11.68;;;;;;;;;;5066561;28;20415;-43
2021/06/13 02:19:33;;;;;;;24.27;12.18;;;;;;;;;;5069745;28;20095;-43
2021/06/13 02:22:01;;;;;;;26.15;11.55;;;;;;;;;;5052495;28;20029;-45
2021/06/13 02:24:30;;;;;;;28.70;11.65;;;;;;;;;;5047098;28;20044;-42
2021/06/13 02:26:57;;;;;;;30.88;12.48;;;;;;;;;;5067587;28;20025;-41
2021/06/13 02:29:25;;;;;;;28.30;11.60;;;;;;;;;;5238828;22;20447;-41
2021/06/13 02:31:53;;;;;;;24.48;11.52;;;;;;;;;;5099088;27;20063;-42
2021/06/13 02:34:30;;;;;;;34.70;11.15;;;;;;;;;;5107156;28;20023;-36
2021/06/13 02:37:00;;;;;;;25.65;11.70;;;;;;;;;;5099862;28;20023;-41
2021/06/13 02:39:27;;;;;;;22.20;10.80;;;;;;;;;;5120625;27;20025;-38
2021/06/13 02:41:54;;;;;;;25.17;10.30;;;;;;;;;;5109453;28;20536;-40
2021/06/13 02:44:21;;;;;;;23.35;10.50;;;;;;;;;;5107393;28;20035;-40
2021/06/13 02:46:48;;;;;;;23.27;10.70;;;;;;;;;;5109374;28;20020;-39
2021/06/13 02:49:15;;;;;;;29.23;10.00;;;;;;;;;;5107660;28;20024;-36
2021/06/13 02:51:57;;;;;;;28.30;10.38;;;;;;;;;;5106263;28;20047;-33
2021/06/13 02:54:26;;;;;;;20.23;9.77;;;;;;;;;;5101536;28;20028;-39
2021/06/13 02:56:58;;;;;;;21.02;9.18;;;;;;;;;;5107925;28;20027;-40
2021/06/13 02:59:31;;;;;;;22.63;8.90;;;;;;;;;;5106931;28;20015;-39
2021/06/13 03:01:59;;;;;;;21.02;9.07;;;;;;;;;;5105953;28;20040;-39
2021/06/13 03:04:27;;;;;;;17.73;8.60;;;;;;;;;;5105549;28;20048;-37
2021/06/13 03:06:56;;;;;;;21.70;8.88;;;;;;;;;;5109944;28;20024;-40
2021/06/13 03:09:28;;;;;;;22.63;9.00;;;;;;;;;;5107664;28;20023;-40
2021/06/13 03:11:58;;;;;;;18.90;8.52;;;;;;;;;;5106323;28;20028;-40
2021/06/13 03:14:27;;;;;;;20.60;8.45;;;;;;;;;;5107960;28;20106;-40
2021/06/13 03:16:55;;;;;;;18.55;8.27;;;;;;;;;;5099711;28;20085;-40
2021/06/13 03:19:23;;;;;;;18.48;8.13;;;;;;;;;;5102384;28;20047;-39
2021/06/13 03:21:51;;;;;;;21.20;7.95;;;;;;;;;;5103880;28;20038;-39
2021/06/13 03:24:19;;;;;;;17.80;7.93;;;;;;;;;;5106893;28;20146;-40
2021/06/13 03:26:47;;;;;;;21.67;7.80;;;;;;;;;;5100077;28;20034;-39
2021/06/13 03:29:14;;;;;;;17.42;7.70;;;;;;;;;;5096573;28;20066;-40
2021/06/13 03:31:41;;;;;;;16.30;7.40;;;;;;;;;;5089933;28;20032;-40
2021/06/13 03:34:09;;;;;;;18.48;7.15;;;;;;;;;;5082317;28;20025;-40
2021/06/13 03:36:37;;;;;;;13.35;6.97;;;;;;;;;;5085201;28;20027;-39
2021/06/13 03:39:05;;;;;;;14.25;6.35;;;;;;;;;;5087321;28;20032;-40
2021/06/13 03:41:32;;;;;;;18.90;6.88;;;;;;;;;;5076409;28;20036;-39
2021/06/13 03:43:59;;;;;;;17.23;6.03;;;;;;;;;;5087909;28;20028;-40
2021/06/13 03:46:27;;;;;;;13.30;6.50;;;;;;;;;;5078468;28;20051;-39
2021/06/13 03:48:55;;;;;;;16.13;6.10;;;;;;;;;;5077288;28;20083;-39
2021/06/13 03:51:23;;;;;;;17.58;6.20;;;;;;;;;;5086242;28;20020;-40
2021/06/13 03:53:56;;;;;;;14.77;6.00;;;;;;;;;;5083890;28;20024;-40
2021/06/13 03:56:25;;;;;;;14.23;5.75;;;;;;;;;;5088310;28;20028;-40
2021/06/13 03:58:53;;;;;;;12.15;6.03;;;;;;;;;;5088395;28;20024;-40
2021/06/13 04:01:21;;;;;;;10.15;5.40;;;;;;;;;;5083875;28;20036;-40
2021/06/13 04:03:50;;;;;;;11.35;5.47;;;;;;;;;;5085974;28;20024;-40
2021/06/13 04:06:19;;;;;;;17.70;5.60;;;;;;;;;;5087462;28;20016;-41
2021/06/13 04:08:47;;;;;;;11.85;5.63;;;;;;;;;;5081386;28;20020;-39
2021/06/13 04:11:14;;;;;;;14.43;5.47;;;;;;;;;;5079602;28;20071;-42
2021/06/13 04:13:42;;;;;;;11.23;5.05;;;;;;;;;;5081673;28;20386;-39
2021/06/13 04:16:09;;;;;;;13.57;5.07;;;;;;;;;;5088039;28;20024;-40
2021/06/13 04:18:37;;;;;;;11.93;5.00;;;;;;;;;;5083699;28;20488;-39
2021/06/13 04:21:06;;;;;;;11.15;4.63;;;;;;;;;;5081658;28;20355;-39
2021/06/13 04:23:33;;;;;;;9.95;5.00;;;;;;;;;;5083829;28;20086;-38
2021/06/13 04:26:01;;;;;;;12.40;4.78;;;;;;;;;;5083139;28;20367;-38
2021/06/13 04:28:29;;;;;;;9.00;5.05;;;;;;;;;;5082221;28;20052;-40
2021/06/13 04:30:59;;;;;;;13.77;4.47;;;;;;;;;;5090063;28;20044;-39
2021/06/13 04:33:26;;;;;;;11.70;5.22;;;;;;;;;;5082450;28;20029;-40
2021/06/13 04:35:54;;;;;;;9.18;4.28;;;;;;;;;;5086578;28;20020;-41
2021/06/13 04:38:21;;;;;;;10.50;4.82;;;;;;;;;;5083960;28;20107;-40
2021/06/13 04:40:48;;;;;;;9.93;4.68;;;;;;;;;;5080953;28;20031;-40
2021/06/13 04:43:15;;;;;;;10.63;4.55;;;;;;;;;;5091001;28;20702;-39
2021/06/13 04:45:42;;;;;;;10.35;3.88;;;;;;;;;;5090638;28;20043;-39
2021/06/13 04:48:09;;;;;;;9.10;3.95;;;;;;;;;;5094355;28;20027;-39
2021/06/13 04:50:39;;;;;;;8.90;4.18;;;;;;;;;;5094649;28;20493;-39
2021/06/13 04:53:15;;;;;;;11.93;4.53;;;;;;;;;;5095490;28;20078;-39
2021/06/13 04:55:45;;;;;;;9.63;4.18;;;;;;;;;;5095506;28;20036;-39
2021/06/13 04:58:21;;;;;;;9.00;4.28;;;;;;;;;;5095417;28;20019;-39
2021/06/13 05:00:48;;;;;;;11.45;4.03;;;;;;;;;;5093954;28;20051;-40
2021/06/13 05:03:15;;;;;;;10.38;3.80;;;;;;;;;;5094165;28;20541;-40
2021/06/13 05:05:42;;;;;;;12.65;3.88;;;;;;;;;;5095256;28;20043;-39
2021/06/13 05:08:09;;;;;;;14.05;4.32;;;;;;;;;;5095171;28;20485;-40
2021/06/13 05:10:36;;;;;;;11.05;3.88;;;;;;;;;;5095469;28;20103;-38
2021/06/13 05:13:14;;;;;;;8.93;3.72;;;;;;;;;;5095251;28;20024;-39
2021/06/13 05:15:41;;;;;;;8.30;4.05;;;;;;;;;;5095063;28;20399;-40
2021/06/13 05:18:09;;;;;;;7.97;3.60;;;;;;;;;;5095163;28;20059;-40
2021/06/13 05:20:36;;;;;;;8.50;3.50;;;;;;;;;;5095287;28;20371;-40
2021/06/13 05:23:04;;;;;;;9.13;3.65;;;;;;;;;;5094861;28;20031;-39
2021/06/13 05:25:33;;;;;;;7.40;3.42;;;;;;;;;;5094931;28;20024;-40
2021/06/13 05:28:00;;;;;;;11.05;3.80;;;;;;;;;;5094943;28;20479;-39
2021/06/13 05:30:29;;;;;;;8.90;3.67;;;;;;;;;;5094456;28;20048;-39
2021/06/13 05:32:56;;;;;;;7.63;3.30;;;;;;;;;;5094916;28;20030;-39
2021/06/13 05:35:24;;;;;;;8.00;3.25;;;;;;;;;;5095016;28;20020;-39
2021/06/13 05:37:51;;;;;;;5.97;3.20;;;;;;;;;;5094743;28;20017;-39
2021/06/13 05:40:19;;;;;;;5.95;3.22;;;;;;;;;;5094815;28;20479;-39
2021/06/13 05:42:48;;;;;;;5.68;3.13;;;;;;;;;;5091609;28;20351;-39
2021/06/13 05:45:15;;;;;;;7.32;3.10;;;;;;;;;;5093997;28;20117;-38
2021/06/13 05:47:42;;;;;;;7.10;3.05;;;;;;;;;;5094186;28;20016;-39
2021/06/13 05:50:11;;;;;;;7.72;2.85;;;;;;;;;;5093435;28;20024;-39
2021/06/13 05:52:38;;;;;;;9.48;3.45;;;;;;;;;;5094108;28;20055;-39
2021/06/13 05:55:05;;;;;;;6.22;2.80;;;;;;;;;;5094444;28;20479;-39
2021/06/13 05:57:33;;;;;;;6.45;2.72;;;;;;;;;;5093230;28;20027;-40
2021/06/13 06:00:00;;;;;;;4.88;2.80;;;;;;;;;;5094376;28;20038;-39
2021/06/13 06:02:27;;;;;;;6.63;3.20;;;;;;;;;;5109503;28;20103;-39
2021/06/13 06:04:54;;;;;;;9.32;3.05;;;;;;;;;;5094166;28;20085;-39
2021/06/13 06:07:21;;;;;;;5.05;3.00;;;;;;;;;;5093668;28;20013;-39
2021/06/13 06:09:49;;;;;;;4.50;2.67;;;;;;;;;;5094147;28;20047;-39
2021/06/13 06:12:16;;;;;;;6.07;2.83;;;;;;;;;;5093614;28;20055;-39
2021/06/13 06:14:43;;;;;;;4.85;2.72;;;;;;;;;;5094126;28;20050;-39
2021/06/13 06:17:10;;;;;;;4.70;2.75;;;;;;;;;;5093371;28;20016;-38
2021/06/13 06:19:37;;;;;;;4.82;2.75;;;;;;;;;;5094018;28;20016;-39
2021/06/13 06:22:05;;;;;;;7.15;2.70;;;;;;;;;;5094070;28;20411;-39
2021/06/13 06:24:32;;;;;;;6.60;2.90;;;;;;;;;;5093402;28;20571;-39
2021/06/13 06:26:59;;;;;;;6.10;3.20;;;;;;;;;;5093572;28;20487;-39
2021/06/13 06:29:26;;;;;;;11.00;3.00;;;;;;;;;;5093082;28;20134;-39
2021/06/13 06:31:53;;;;;;;5.32;2.78;;;;;;;;;;5109474;28;20110;-39
2021/06/13 06:34:20;;;;;;;6.05;2.65;;;;;;;;;;5093243;28;20016;-39
2021/06/13 06:36:48;;;;;;;6.47;2.67;;;;;;;;;;5093597;28;20471;-39
2021/06/13 06:39:15;;;;;;;7.75;2.92;;;;;;;;;;5108750;28;20082;-39
2021/06/13 06:41:42;;;;;;;5.70;2.67;;;;;;;;;;5093369;28;20372;-39
2021/06/13 06:44:10;;;;;;;4.35;2.58;;;;;;;;;;5091832;28;20530;-39
2021/06/13 06:46:38;;;;;;;5.90;2.90;;;;;;;;;;5093254;28;20028;-39
2021/06/13 06:49:05;;;;;;;5.45;2.80;;;;;;;;;;5092841;28;20122;-38
2021/06/13 06:51:33;;;;;;;8.32;2.70;;;;;;;;;;5093513;28;20052;-39
2021/06/13 06:54:00;;;;;;;5.68;2.80;;;;;;;;;;5108998;28;20023;-39
2021/06/13 06:56:27;;;;;;;7.07;2.95;;;;;;;;;;5092583;28;20020;-39
2021/06/13 06:58:55;;;;;;;5.38;2.60;;;;;;;;;;5093101;28;20020;-39
2021/06/13 07:01:22;;;;;;;6.93;2.45;;;;;;;;;;5092723;28;20475;-39
2021/06/13 07:03:49;;;;;;;3.90;2.20;;;;;;;;;;5093265;28;20416;-39
2021/06/13 07:06:16;;;;;;;5.55;2.50;;;;;;;;;;5092613;28;20035;-39
2021/06/13 07:08:44;;;;;;;4.35;2.60;;;;;;;;;;5092480;28;20420;-39
2021/06/13 07:11:11;;;;;;;3.72;2.10;;;;;;;;;;5092003;28;20028;-39
2021/06/13 07:13:38;;;;;;;3.85;2.40;;;;;;;;;;5093126;28;20507;-39
2021/06/13 07:16:05;;;;;;;5.40;2.35;;;;;;;;;;5092418;28;20421;-39
2021/06/13 07:18:32;;;;;;;5.13;2.70;;;;;;;;;;5092605;28;20376;-39
2021/06/13 07:20:59;;;;;;;7.15;2.58;;;;;;;;;;5092412;28;20016;-38
2021/06/13 07:23:26;;;;;;;10.10;2.22;;;;;;;;;;5092701;28;20103;-38
2021/06/13 07:25:53;;;;;;;7.07;2.63;;;;;;;;;;5092331;28;20043;-38
2021/06/13 07:28:20;;;;;;;5.00;2.60;;;;;;;;;;5092215;28;20016;-39
2021/06/13 07:30:47;;;;;;;4.30;2.65;;;;;;;;;;5092320;28;20043;-39
2021/06/13 07:33:14;;;;;;;6.82;2.10;;;;;;;;;;5092182;28;20096;-39
2021/06/13 07:35:41;;;;;;;3.40;2.20;;;;;;;;;;5092760;28;20016;-39
2021/06/13 07:38:08;;;;;;;4.05;2.40;;;;;;;;;;5091902;28;20020;-39
2021/06/13 07:40:35;;;;;;;3.97;2.17;;;;;;;;;;5092363;28;20020;-38
2021/06/13 07:43:03;;;;;;;3.85;2.30;;;;;;;;;;5092145;28;20020;-38
2021/06/13 07:45:30;;;;;;;5.03;2.25;;;;;;;;;;5092378;28;20475;-39
2021/06/13 07:47:57;;;;;;;3.85;1.80;;;;;;;;;;5091710;28;20076;-39
2021/06/13 07:50:24;;;;;;;3.58;2.13;;;;;;;;;;5092328;28;20528;-40
2021/06/13 07:52:51;;;;;;;3.30;2.00;;;;;;;;;;5091923;28;20471;-37
2021/06/13 07:55:19;;;;;;;4.70;2.13;;;;;;;;;;5092259;28;20564;-39
2021/06/13 07:57:48;;;;;;;4.88;2.30;;;;;;;;;;5092081;28;20012;-40
2021/06/13 08:00:18;;;;;;;3.63;2.03;;;;;;;;;;5091855;28;20020;-39
2021/06/13 08:02:46;;;;;;;3.85;2.15;;;;;;;;;;5092161;28;20476;-39
2021/06/13 08:05:16;;;;;;;6.70;1.90;;;;;;;;;;5091595;28;20085;-39
2021/06/13 08:07:43;;;;;;;3.30;1.98;;;;;;;;;;5092680;28;20012;-39
2021/06/13 08:10:11;;;;;;;3.60;2.13;;;;;;;;;;5091342;28;20028;-39
2021/06/13 08:12:38;;;;;;;3.75;1.90;;;;;;;;;;5092186;28;20019;-40
2021/06/13 08:15:06;;;;;;;4.07;2.20;;;;;;;;;;5091738;28;20026;-38
2021/06/13 08:17:33;;;;;;;4.10;1.98;;;;;;;;;;5092030;28;20495;-39
2021/06/13 08:20:00;;;;;;;5.20;2.03;;;;;;;;;;5091343;28;20055;-39
2021/06/13 08:22:27;;;;;;;4.78;2.03;;;;;;;;;;5096262;28;20379;-39
2021/06/13 08:24:54;;;;;;;2.83;1.92;;;;;;;;;;5095800;28;20060;-39
2021/06/13 08:27:21;;;;;;;4.05;1.90;;;;;;;;;;5096182;28;20020;-39
2021/06/13 08:29:48;;;;;;;4.15;1.85;;;;;;;;;;5095279;28;20039;-38
2021/06/13 08:32:15;;;;;;;4.03;2.00;;;;;;;;;;5096107;28;20379;-40
2021/06/13 08:34:42;;;;;;;4.82;2.22;;;;;;;;;;5095827;28;20516;-37
2021/06/13 08:37:09;;;;;;;6.15;1.90;;;;;;;;;;5095600;28;20368;-39
2021/06/13 08:39:37;;;;;;;3.22;1.77;;;;;;;;;;5111432;28;20016;-39
2021/06/13 08:42:04;;;;;;;2.92;1.65;;;;;;;;;;5095380;28;20039;-38
2021/06/13 08:44:31;;;;;;;2.33;1.60;;;;;;;;;;5095809;28;20118;-39
2021/06/13 08:46:59;;;;;;;2.80;1.70;;;;;;;;;;5095431;28;20490;-39
2021/06/13 08:49:27;;;;;;;2.50;1.60;;;;;;;;;;5095536;28;20034;-39
2021/06/13 08:51:54;;;;;;;4.13;1.90;;;;;;;;;;5095102;28;20027;-39
2021/06/13 08:54:22;;;;;;;5.10;2.15;;;;;;;;;;5095711;28;20020;-39
2021/06/13 08:56:50;;;;;;;3.30;1.98;;;;;;;;;;5095168;28;20107;-39
2021/06/13 08:59:17;;;;;;;3.05;1.90;;;;;;;;;;5095309;28;20020;-40
2021/06/13 09:01:44;;;;;;;4.68;1.95;;;;;;;;;;5095233;28;20498;-38
2021/06/13 09:04:11;;;;;;;3.20;2.00;;;;;;;;;;5095260;28;20086;-39
2021/06/13 09:06:38;;;;;;;4.40;1.73;;;;;;;;;;5095265;28;20475;-39
2021/06/13 09:09:16;;;;;;;5.07;1.83;;;;;;;;;;5094672;28;20023;-39
2021/06/13 09:11:57;;;;;;;2.25;1.50;;;;;;;;;;5095435;28;20429;-39
2021/06/13 09:14:24;;;;;;;4.55;1.58;;;;;;;;;;5094799;28;20024;-39
2021/06/13 09:16:52;;;;;;;4.63;1.88;;;;;;;;;;5095211;28;20051;-38
2021/06/13 09:19:19;;;;;;;4.55;1.67;;;;;;;;;;5094331;28;20032;-40
2021/06/13 09:21:46;;;;;;;4.65;1.83;;;;;;;;;;5095306;28;20024;-38
2021/06/13 09:24:17;;;;;;;3.03;1.55;;;;;;;;;;5094505;28;20026;-39
2021/06/13 09:26:44;;;;;;;2.92;1.77;;;;;;;;;;5095141;28;20425;-39
2021/06/13 09:29:12;;;;;;;2.42;1.58;;;;;;;;;;5094177;28;20024;-39
2021/06/13 09:31:39;;;;;;;4.03;1.58;;;;;;;;;;5094943;28;20482;-39
2021/06/13 09:34:13;;;;;;;6.95;1.70;;;;;;;;;;5093584;28;20170;-39
2021/06/13 09:36:40;;;;;;;3.17;1.70;;;;;;;;;;5094908;28;20107;-39
2021/06/13 09:39:09;;;;;;;3.25;1.92;;;;;;;;;;5094296;28;20024;-38
2021/06/13 09:41:40;;;;;;;3.13;1.50;;;;;;;;;;5094514;28;20048;-39
2021/06/13 09:44:09;;;;;;;3.08;1.60;;;;;;;;;;5110363;28;20027;-39
2021/06/13 09:46:38;;;;;;;2.80;1.60;;;;;;;;;;5094162;28;20086;-39
2021/06/13 09:49:07;;;;;;;4.80;1.80;;;;;;;;;;5094535;28;20371;-40
2021/06/13 09:51:48;;;;;;;3.70;1.80;;;;;;;;;;5093798;28;20020;-39
2021/06/13 09:54:26;;;;;;;3.58;1.70;;;;;;;;;;5094464;28;20371;-38
2021/06/13 09:56:54;;;;;;;3.80;1.70;;;;;;;;;;5094185;28;20485;-39
2021/06/13 09:59:24;;;;;;;2.50;1.45;;;;;;;;;;5094412;28;20027;-39
2021/06/13 10:01:59;;;;;;;3.45;1.27;;;;;;;;;;5093764;28;20035;-39
2021/06/13 10:04:33;;;;;;;5.03;1.50;;;;;;;;;;5094297;28;20061;-39
2021/06/13 10:07:03;;;;;;;1.88;1.42;;;;;;;;;;5093749;28;20020;-39
2021/06/13 10:09:38;;;;;;;3.30;1.67;;;;;;;;;;5094340;28;20016;-39
2021/06/13 10:12:09;;;;;;;4.03;1.67;;;;;;;;;;5093412;28;20043;-39
2021/06/13 10:14:36;;;;;;;3.47;1.88;;;;;;;;;;5094174;28;20008;-39
2021/06/13 10:17:04;;;;;;;2.75;1.33;;;;;;;;;;5094025;28;20020;-38
2021/06/13 10:19:44;;;;;;;2.25;1.33;;;;;;;;;;5093589;28;20047;-38
2021/06/13 10:22:11;;;;;;;4.03;1.90;;;;;;;;;;5093789;28;20016;-39
2021/06/13 10:24:39;;;;;;;2.88;1.50;;;;;;;;;;5108910;28;20382;-39
2021/06/13 10:27:08;;;;;;;3.63;1.48;;;;;;;;;;5094022;28;20050;-39
2021/06/13 10:29:36;;;;;;;3.33;1.48;;;;;;;;;;5093052;28;20479;-39
2021/06/13 10:32:04;;;;;;;2.80;1.58;;;;;;;;;;5093534;28;20035;-38
2021/06/13 10:34:32;;;;;;;3.58;1.60;;;;;;;;;;5093272;28;20077;-39
2021/06/13 10:37:00;;;;;;;2.65;1.70;;;;;;;;;;5093660;28;20020;-39
2021/06/13 10:39:29;;;;;;;3.42;1.92;;;;;;;;;;5108737;28;20020;-38
2021/06/13 10:41:57;;;;;;;2.25;1.63;;;;;;;;;;5093289;28;20528;-38
2021/06/13 10:44:25;;;;;;;3.35;1.55;;;;;;;;;;5092470;28;20028;-39
2021/06/13 10:46:56;;;;;;;3.63;1.63;;;;;;;;;;5093225;28;20493;-39
2021/06/13 10:49:32;;;;;;;2.63;1.52;;;;;;;;;;5093513;28;20020;-39
2021/06/13 10:52:13;;;;;;;1.83;1.38;;;;;;;;;;5092620;28;20130;-39
2021/06/13 10:54:55;;;;;;;2.92;1.60;;;;;;;;;;5093607;28;20098;-39
2021/06/13 10:57:22;;;;;;;2.22;1.60;;;;;;;;;;5109039;28;20956;-39
2021/06/13 10:59:51;;;;;;;2.33;1.67;;;;;;;;;;5093263;28;20023;-38
2021/06/13 11:02:19;;;;;;;3.22;1.80;;;;;;;;;;5092128;28;20016;-39
2021/06/13 11:05:01;;;;;;;3.33;1.75;;;;;;;;;;5092916;28;20032;-39
2021/06/13 11:07:35;;;;;;;2.72;1.73;;;;;;;;;;5093259;28;20028;-39
2021/06/13 11:12:48;;;;;;;2.38;1.60;;;;;;;;;;5092451;28;20031;-39
2021/06/13 11:15:18;;;;;;;2.15;1.30;;;;;;;;;;5092903;28;20021;-39
2021/06/13 11:18:01;;;;;;;2.22;1.45;;;;;;;;;;5092618;28;20095;-38
2021/06/13 11:20:34;;;;;;;2.63;1.50;;;;;;;;;;5092785;28;20034;-39
2021/06/13 11:23:00;;;;;;;;;;;;;;;;;;5092665;28;20059;-39
2021/06/13 11:25:29;;;;;;;3.08;1.50;;;;;;;;;;5092473;28;19939;-39
2021/06/13 11:28:08;;;;;;;2.22;1.50;;;;;;;;;;5092445;28;20024;-39
2021/06/13 11:30:40;;;;;;;2.17;1.50;;;;;;;;;;5092362;28;20040;-39
2021/06/13 11:33:07;;;;;;;2.90;1.50;;;;;;;;;;5092109;28;20099;-39
2021/06/13 11:35:35;;;;;;;3.53;1.80;;;;;;;;;;5092389;28;20266;-39
2021/06/13 11:38:12;;;;;;;3.20;1.42;;;;;;;;;;5091936;28;20471;-39
2021/06/13 11:40:56;;;;;;;3.08;1.40;;;;;;;;;;5091270;28;20043;-39
2021/06/13 11:43:24;;;;;;;3.92;1.58;;;;;;;;;;5090517;28;20082;-39
2021/06/13 11:46:02;;;;;;;4.13;1.50;;;;;;;;;;5092541;28;20028;-39
2021/06/13 11:48:30;;;;;;;2.10;1.35;;;;;;;;;;5091777;28;20078;-38
2021/06/13 11:51:17;;;;;;;4.28;1.50;;;;;;;;;;5092420;28;20028;-39
2021/06/13 11:53:57;;;;;;;2.60;1.45;;;;;;;;;;5091689;28;20047;-39
2021/06/13 11:56:36;;;;;;;2.10;1.42;;;;;;;;;;5091965;28;20482;-38
2021/06/13 11:59:19;;;;;;;2.15;1.30;;;;;;;;;;5090349;28;20028;-39
2021/06/13 12:01:53;;;;;;;2.88;1.20;;;;;;;;;;5092066;28;20012;-39
2021/06/13 12:04:20;;;;;;;1.95;1.20;;;;;;;;;;5091860;28;20024;-39
2021/06/13 12:06:48;;;;;;;1.90;1.27;;;;;;;;;;5092322;28;20161;-39
2021/06/13 12:09:16;;;;;;;2.08;1.40;;;;;;;;;;5091669;28;20024;-39
2021/06/13 12:11:51;;;;;;;1.73;1.20;;;;;;;;;;5092049;28;20032;-39
2021/06/13 12:14:20;;;;;;;1.80;1.35;;;;;;;;;;5091841;28;20530;-38
2021/06/13 12:16:48;;;;;;;3.45;1.42;;;;;;;;;;5090874;28;20028;-39
2021/06/13 12:19:15;;;;;;;3.00;1.45;;;;;;;;;;5091746;28;20445;-37
2021/06/13 12:21:42;;;;;;;1.33;1.02;;;;;;;;;;5092099;28;20119;-39
2021/06/13 12:24:14;;;;;;;2.00;1.30;;;;;;;;;;5091774;28;20089;-39
2021/06/13 12:29:27;;;;;;;2.72;1.38;;;;;;;;;;5091803;28;20712;-40
2021/06/13 12:31:55;;;;;;;1.98;1.20;;;;;;;;;;5091722;28;20441;-39
2021/06/13 12:34:23;;;;;;;2.25;1.02;;;;;;;;;;5092001;28;20023;-38
2021/06/13 12:36:54;;;;;;;3.15;1.08;;;;;;;;;;5089984;28;20062;-39
2021/06/13 12:39:25;;;;;;;1.73;1.40;;;;;;;;;;5091878;28;20020;-39
2021/06/13 12:41:53;;;;;;;3.53;1.50;;;;;;;;;;5091747;28;20020;-39
2021/06/13 12:44:20;;;;;;;2.05;1.40;;;;;;;;;;5091561;28;20031;-39
2021/06/13 12:46:48;;;;;;;2.22;1.27;;;;;;;;;;5091416;28;20032;-39
2021/06/13 12:49:15;;;;;;;2.75;1.30;;;;;;;;;;5091839;28;20099;-39
2021/06/13 12:51:43;;;;;;;1.98;1.45;;;;;;;;;;5091309;28;20086;-39
2021/06/13 12:54:17;;;;;;;3.53;1.50;;;;;;;;;;5091433;28;20487;-38
2021/06/13 12:56:45;;;;;;;3.15;1.20;;;;;;;;;;5091225;28;20677;-39
2021/06/13 12:59:13;;;;;;;5.32;1.40;;;;;;;;;;5091909;28;20033;-38
2021/06/13 13:01:43;;;;;;;2.22;1.42;;;;;;;;;;5091721;28;20020;-38
2021/06/13 13:04:10;;;;;;;2.40;1.13;;;;;;;;;;5091294;28;20056;-39
2021/06/13 13:06:50;;;;;;;3.47;1.50;;;;;;;;;;5091941;28;20028;-39
2021/06/13 13:09:17;;;;;;;1.98;1.15;;;;;;;;;;5094820;28;20024;-39
2021/06/13 13:11:52;;;;;;;1.95;1.10;;;;;;;;;;5095485;28;20024;-38
2021/06/13 13:14:19;;;;;;;2.75;1.35;;;;;;;;;;5094730;28;20028;-39
2021/06/13 13:16:47;;;;;;;2.10;1.25;;;;;;;;;;5095452;28;20161;-38
2021/06/13 13:19:28;;;;;;;3.08;1.30;;;;;;;;;;5093657;28;20023;-39
2021/06/13 13:21:56;;;;;;;1.77;1.00;;;;;;;;;;5095435;28;20069;-38
2021/06/13 13:24:33;;;;;;;4.53;1.25;;;;;;;;;;5094520;28;20016;-39
2021/06/13 13:27:01;;;;;;;2.13;1.20;;;;;;;;;;5095342;28;20031;-38
2021/06/13 13:29:47;;;;;;;1.10;1.00;;;;;;;;;;5094340;28;20020;-38
2021/06/13 13:32:15;;;;;;;1.52;1.02;;;;;;;;;;5095345;28;20035;-38
2021/06/13 13:34:42;;;;;;;1.73;1.20;;;;;;;;;;5093164;28;20415;-39
2021/06/13 13:37:10;;;;;;;2.90;1.10;;;;;;;;;;5095101;28;20513;-39
2021/06/13 13:39:38;;;;;;;2.58;1.10;;;;;;;;;;5094256;28;20050;-39
2021/06/13 13:42:12;;;;;;;2.95;0.93;;;;;;;;;;5094902;28;20051;-38
2021/06/13 13:44:40;;;;;;;1.88;1.30;;;;;;;;;;5086634;28;20054;-38
2021/06/13 13:47:09;;;;;;;3.90;1.20;;;;;;;;;;5086124;28;20020;-38
2021/06/13 13:49:37;;;;;;;4.97;1.27;;;;;;;;;;5078546;28;20016;-38
2021/06/13 13:52:05;;;;;;;4.95;1.20;;;;;;;;;;5092412;28;20410;-37
2021/06/13 13:54:36;;;;;;;2.42;1.20;;;;;;;;;;5093119;28;20024;-37
2021/06/13 13:57:04;;;;;;;4.40;1.23;;;;;;;;;;5093888;28;20011;-38
2021/06/13 13:59:32;;;;;;;8.07;1.17;;;;;;;;;;5093779;28;20270;-38
2021/06/13 14:02:04;;;;;;;2.92;1.20;;;;;;;;;;5093212;28;20055;-38
2021/06/13 14:04:32;;;;;;;1.35;1.17;;;;;;;;;;5093641;28;20032;-38
2021/06/13 14:07:00;;;;;;;2.83;1.42;;;;;;;;;;5093170;28;20515;-38
2021/06/13 14:09:30;;;;;;;2.17;1.10;;;;;;;;;;5094440;28;20361;-38
2021/06/13 14:11:58;;;;;;;2.33;1.13;;;;;;;;;;5093400;28;20085;-38
2021/06/13 14:14:25;;;;;;;1.58;1.00;;;;;;;;;;5093587;28;20097;-38
2021/06/13 14:16:53;;;;;;;3.80;1.17;;;;;;;;;;5093065;28;20012;-38
2021/06/13 14:19:21;;;;;;;4.05;1.10;;;;;;;;;;5092028;28;20017;-38
2021/06/13 14:21:53;;;;;;;2.17;1.25;;;;;;;;;;5092999;28;20004;-38
2021/06/13 14:24:20;;;;;;;2.27;1.10;;;;;;;;;;5092674;28;20019;-38
2021/06/13 14:26:49;;;;;;;3.20;1.45;;;;;;;;;;5092574;28;20028;-38
2021/06/13 14:29:16;;;;;;;1.92;1.10;;;;;;;;;;5093017;28;20024;-38
2021/06/13 14:31:43;;;;;;;2.75;1.15;;;;;;;;;;5092872;28;20151;-38
2021/06/13 14:34:10;;;;;;;2.22;1.27;;;;;;;;;;5092728;28;20024;-38
2021/06/13 14:36:37;;;;;;;2.47;1.10;;;;;;;;;;5093183;28;20480;-38
2021/06/13 14:39:04;;;;;;;4.65;1.15;;;;;;;;;;5092646;28;20093;-39
2021/06/13 14:41:31;;;;;;;1.80;1.13;;;;;;;;;;5092833;28;20024;-38
2021/06/13 14:43:58;;;;;;;1.17;1.05;;;;;;;;;;5092358;28;20172;-38
2021/06/13 14:46:26;;;;;;;2.28;1.30;;;;;;;;;;5092587;28;20032;-38
2021/06/13 14:48:53;;;;;;;2.10;1.17;;;;;;;;;;5092244;28;20024;-39
2021/06/13 14:51:22;;;;;;;1.73;1.15;;;;;;;;;;5092589;28;20247;-38
2021/06/13 14:53:52;;;;;;;1.80;1.35;;;;;;;;;;5090913;28;20032;-38
2021/06/13 14:56:20;;;;;;;2.00;1.40;;;;;;;;;;5092099;28;20024;-38